createdAt,value
2022-08-03T00:00:20.349Z,100.00
2022-08-03T00:02:53.167Z,100.00
2022-08-03T00:06:04.349Z,100.00
2022-08-03T00:08:40.341Z,100.00
2022-08-03T00:11:13.252Z,100.00
2022-08-03T00:14:09.514Z,100.00
2022-08-03T00:23:55.369Z,100.00
2022-08-03T00:27:25.565Z,100.00
2022-08-03T00:30:42.925Z,100.00
2022-08-03T00:33:20.670Z,100.00
2022-08-03T00:39:50.203Z,100.00
2022-08-03T00:42:22.897Z,100.00
2022-08-03T00:45:01.345Z,100.00
2022-08-03T00:47:34.077Z,100.00
2022-08-03T00:50:07.210Z,100.00
2022-08-03T00:52:40.614Z,100.00
2022-08-03T00:55:13.792Z,100.00
2022-08-03T00:57:47.630Z,100.00
2022-08-03T01:00:27.792Z,100.00
2022-08-03T01:03:00.630Z,100.00
2022-08-03T01:06:18.751Z,100.00
2022-08-03T01:09:12.325Z,100.00
2022-08-03T01:11:59.844Z,100.00
2022-08-03T01:14:40.808Z,100.00
2022-08-03T01:17:40.131Z,100.00
2022-08-03T01:20:20.765Z,100.00
2022-08-03T01:23:46.451Z,100.00
2022-08-03T01:26:48.648Z,100.00
2022-08-03T01:30:12.392Z,100.00
2022-08-03T01:33:10.510Z,100.00
2022-08-03T01:35:53.629Z,100.00
2022-08-03T01:38:33.457Z,100.00
2022-08-03T01:41:13.885Z,100.00
2022-08-03T01:44:27.652Z,100.00
2022-08-03T01:46:49.144Z,100.00
2022-08-03T01:49:22.789Z,100.00
2022-08-03T01:52:04.086Z,100.00
2022-08-03T01:54:44.051Z,100.00
2022-08-03T01:57:19.901Z,100.00
2022-08-03T01:59:55.818Z,100.00
2022-08-03T02:02:34.482Z,100.00
2022-08-03T02:05:11.427Z,100.00
2022-08-03T02:07:47.880Z,100.00
2022-08-03T02:10:35.579Z,100.00
2022-08-03T02:13:10.623Z,100.00
2022-08-03T02:15:44.937Z,100.00
2022-08-03T02:18:21.193Z,100.00
2022-08-03T02:20:55.880Z,100.00
2022-08-03T02:23:28.842Z,100.00
2022-08-03T02:26:06.708Z,100.00
2022-08-03T02:28:46.140Z,100.00
2022-08-03T02:31:27.229Z,100.00
2022-08-03T02:34:06.760Z,100.00
2022-08-03T02:36:44.937Z,100.00
2022-08-03T02:39:22.011Z,100.00
2022-08-03T02:42:02.365Z,100.00
2022-08-03T02:44:38.459Z,100.00
2022-08-03T02:47:13.546Z,100.00
2022-08-03T02:49:52.315Z,100.00
2022-08-03T02:52:30.573Z,100.00
2022-08-03T02:55:06.756Z,100.00
2022-08-03T02:57:40.948Z,100.00
2022-08-03T03:00:27.301Z,100.00
2022-08-03T03:03:06.437Z,100.00
2022-08-03T03:05:51.619Z,100.00
2022-08-03T03:08:29.254Z,100.00
2022-08-03T03:11:02.290Z,100.00
2022-08-03T03:13:37.947Z,100.00
2022-08-03T03:16:15.529Z,100.00
2022-08-03T03:18:49.937Z,100.00
2022-08-03T03:21:25.088Z,100.00
2022-08-03T03:23:59.773Z,100.00
2022-08-03T03:26:35.351Z,100.00
2022-08-03T03:29:10.002Z,100.00
2022-08-03T03:31:42.721Z,100.00
2022-08-03T03:34:15.742Z,100.00
2022-08-03T03:36:49.289Z,100.00
2022-08-03T03:39:22.044Z,100.00
2022-08-03T03:41:55.224Z,100.00
2022-08-03T03:44:31.905Z,100.00
2022-08-03T03:47:04.936Z,100.00
2022-08-03T03:49:38.019Z,100.00
2022-08-03T03:52:11.377Z,100.00
2022-08-03T03:54:45.882Z,100.00
2022-08-03T03:57:18.640Z,100.00
2022-08-03T03:59:51.380Z,100.00
2022-08-03T04:02:24.467Z,100.00
2022-08-03T04:05:15.528Z,100.00
2022-08-03T04:08:24.904Z,100.00
2022-08-03T04:11:30.192Z,100.00
2022-08-03T04:14:15.015Z,100.00
2022-08-03T04:16:54.898Z,100.00
2022-08-03T04:19:47.256Z,100.00
2022-08-03T04:22:27.727Z,100.00
2022-08-03T04:25:05.324Z,100.00
2022-08-03T04:27:42.042Z,100.00
2022-08-03T04:30:15.498Z,100.00
2022-08-03T04:32:51.903Z,100.00
2022-08-03T04:35:59.678Z,100.00
2022-08-03T04:38:27.111Z,100.00
2022-08-03T04:41:01.641Z,100.00
2022-08-03T04:43:36.141Z,100.00
2022-08-03T04:46:11.257Z,100.00
2022-08-03T04:48:45.135Z,100.00
2022-08-03T04:51:18.360Z,100.00
2022-08-03T04:53:51.001Z,100.00
2022-08-03T04:56:23.754Z,100.00
2022-08-03T04:58:56.530Z,100.00
2022-08-03T05:01:29.230Z,100.00
2022-08-03T05:04:02.166Z,100.00
2022-08-03T05:06:35.111Z,100.00
2022-08-03T05:09:08.491Z,100.00
2022-08-03T05:11:41.140Z,100.00
2022-08-03T05:14:28.310Z,100.00
2022-08-03T05:17:01.148Z,100.00
2022-08-03T05:19:34.075Z,100.00
2022-08-03T05:22:06.734Z,100.00
2022-08-03T05:24:39.370Z,100.00
2022-08-03T05:27:23.582Z,100.00
2022-08-03T05:29:56.306Z,100.00
2022-08-03T05:32:49.021Z,100.00
2022-08-03T05:36:00.984Z,100.00
2022-08-03T05:38:14.703Z,100.00
2022-08-03T05:41:22.168Z,100.00
2022-08-03T05:43:58.061Z,100.00
2022-08-03T05:46:30.825Z,100.00
2022-08-03T05:49:04.673Z,100.00
2022-08-03T05:51:37.370Z,100.00
2022-08-03T05:54:12.201Z,100.00
2022-08-03T05:56:44.877Z,100.00
2022-08-03T05:59:38.109Z,100.00
2022-08-03T06:02:11.348Z,100.00
2022-08-03T06:04:44.149Z,100.00
2022-08-03T06:07:16.806Z,100.00
2022-08-03T06:10:33.952Z,100.00
2022-08-03T06:12:42.229Z,100.00
2022-08-03T06:15:15.741Z,100.00
2022-08-03T06:17:50.012Z,100.00
2022-08-03T06:20:28.631Z,100.00
2022-08-03T06:23:06.075Z,100.00
2022-08-03T06:25:40.162Z,100.00
2022-08-03T06:28:52.850Z,100.00
2022-08-03T06:31:10.941Z,98.48
2022-08-03T06:34:31.136Z,98.39
2022-08-03T06:36:38.681Z,97.97
2022-08-03T06:39:13.038Z,98.94
2022-08-03T06:41:45.727Z,96.23
2022-08-03T06:44:18.370Z,95.65
2022-08-03T06:46:51.790Z,95.19
2022-08-03T06:49:24.948Z,93.97
2022-08-03T06:52:03.050Z,92.31
2022-08-03T06:54:38.976Z,95.28
2022-08-03T06:57:11.751Z,91.24
2022-08-03T07:00:09.403Z,90.52
2022-08-03T07:02:44.121Z,90.10
2022-08-03T07:05:18.003Z,89.57
2022-08-03T07:07:50.586Z,88.76
2022-08-03T07:10:29.743Z,87.85
2022-08-03T07:13:02.362Z,86.13
2022-08-03T07:15:55.329Z,85.62
2022-08-03T07:18:29.809Z,84.59
2022-08-03T07:21:02.988Z,83.07
2022-08-03T07:23:35.645Z,80.98
2022-08-03T07:26:08.347Z,81.66
2022-08-03T07:28:41.030Z,81.50
2022-08-03T07:31:13.752Z,79.18
2022-08-03T07:33:46.407Z,77.92
2022-08-03T07:36:19.151Z,75.89
2022-08-03T07:38:59.375Z,76.10
2022-08-03T07:41:31.992Z,76.45
2022-08-03T07:44:04.890Z,74.35
2022-08-03T07:46:37.569Z,75.03
2022-08-03T07:49:10.615Z,75.12
2022-08-03T07:51:44.259Z,73.91
2022-08-03T07:54:26.590Z,71.67
2022-08-03T07:56:59.412Z,71.46
2022-08-03T07:59:56.693Z,72.77
2022-08-03T08:02:24.833Z,69.10
2022-08-03T08:05:04.961Z,68.16
2022-08-03T08:07:39.563Z,68.06
2022-08-03T08:10:12.263Z,65.55
2022-08-03T08:12:46.267Z,67.20
2022-08-03T08:15:18.966Z,66.93
2022-08-03T08:18:03.750Z,67.88
2022-08-03T08:20:38.968Z,67.36
2022-08-03T08:23:42.227Z,67.67
2022-08-03T08:26:06.312Z,64.66
2022-08-03T08:28:49.195Z,62.82
2022-08-03T08:31:21.743Z,62.47
2022-08-03T08:34:03.988Z,63.36
2022-08-03T08:36:37.270Z,62.09
2022-08-03T08:39:10.394Z,60.79
2022-08-03T08:41:49.617Z,61.06
2022-08-03T08:44:25.817Z,60.50
2022-08-03T08:47:02.961Z,62.16
2022-08-03T08:49:40.126Z,60.80
2022-08-03T08:52:25.238Z,60.15
2022-08-03T08:55:08.634Z,57.68
2022-08-03T08:57:51.125Z,57.49
2022-08-03T09:00:23.677Z,55.91
2022-08-03T09:02:56.363Z,57.78
2022-08-03T09:05:54.996Z,54.68
2022-08-03T09:08:26.126Z,53.79
2022-08-03T09:10:59.793Z,53.30
2022-08-03T09:13:34.525Z,54.13
2022-08-03T09:16:22.755Z,52.10
2022-08-03T09:18:55.683Z,51.99
2022-08-03T09:21:32.173Z,51.18
2022-08-03T09:24:16.492Z,52.09
2022-08-03T09:26:58.690Z,50.53
2022-08-03T09:29:33.915Z,48.58
2022-08-03T09:32:06.621Z,47.86
2022-08-03T09:34:39.566Z,47.18
2022-08-03T09:38:11.798Z,48.36
2022-08-03T09:40:36.918Z,46.71
2022-08-03T09:43:11.200Z,46.51
2022-08-03T09:45:53.058Z,46.57
2022-08-03T09:48:29.700Z,45.69
2022-08-03T09:51:13.627Z,46.88
2022-08-03T09:54:17.568Z,44.99
2022-08-03T09:56:53.651Z,46.08
2022-08-03T09:59:28.562Z,44.36
2022-08-03T10:02:02.932Z,41.50
2022-08-03T10:04:54.575Z,42.17
2022-08-03T10:07:29.418Z,42.15
2022-08-03T10:10:30.318Z,43.53
2022-08-03T10:13:15.736Z,42.83
2022-08-03T10:16:22.646Z,43.08
2022-08-03T10:19:10.651Z,41.57
2022-08-03T10:21:56.423Z,41.49
2022-08-03T10:24:36.591Z,40.73
2022-08-03T10:27:12.975Z,40.10
2022-08-03T10:29:56.308Z,38.38
2022-08-03T10:32:36.444Z,37.69
2022-08-03T10:35:19.730Z,39.00
2022-08-03T10:38:08.121Z,38.68
2022-08-03T10:40:49.915Z,38.43
2022-08-03T10:43:33.908Z,37.46
2022-08-03T10:46:09.529Z,38.50
2022-08-03T10:48:43.725Z,39.36
2022-08-03T10:51:17.346Z,37.72
2022-08-03T10:53:54.681Z,36.60
2022-08-03T10:56:53.542Z,38.08
2022-08-03T10:59:45.640Z,37.28
2022-08-03T11:02:18.288Z,35.60
2022-08-03T11:05:30.793Z,36.22
2022-08-03T11:08:29.962Z,35.26
2022-08-03T11:11:40.304Z,36.15
2022-08-03T11:14:21.891Z,37.37
2022-08-03T11:17:14.099Z,37.88
2022-08-03T11:19:56.868Z,39.41
2022-08-03T11:23:03.739Z,36.66
2022-08-03T11:26:36.970Z,35.69
2022-08-03T11:29:36.395Z,38.37
2022-08-03T11:32:09.069Z,39.23
2022-08-03T11:35:13.672Z,37.80
2022-08-03T11:38:04.381Z,36.82
2022-08-03T11:40:50.492Z,36.68
2022-08-03T11:43:30.717Z,37.50
2022-08-03T11:46:29.841Z,37.63
2022-08-03T11:49:10.368Z,37.15
2022-08-03T11:51:44.723Z,37.98
2022-08-03T11:54:19.836Z,39.71
2022-08-03T11:56:52.527Z,41.04
2022-08-03T11:59:37.349Z,39.13
2022-08-03T12:02:12.294Z,37.16
2022-08-03T12:04:53.480Z,36.91
2022-08-03T12:08:03.778Z,36.82
2022-08-03T12:10:35.908Z,36.76
2022-08-03T12:14:44.982Z,35.37
2022-08-03T12:16:04.673Z,33.78
2022-08-03T12:18:51.467Z,31.01
2022-08-03T12:21:25.011Z,31.86
2022-08-03T12:24:00.827Z,34.50
2022-08-03T12:26:59.221Z,33.68
2022-08-03T12:29:32.284Z,33.19
2022-08-03T12:32:05.346Z,33.29
2022-08-03T12:34:49.260Z,32.46
2022-08-03T12:37:28.665Z,30.79
2022-08-03T12:40:10.096Z,33.65
2022-08-03T12:42:43.235Z,36.93
2022-08-03T12:45:18.809Z,32.92
2022-08-03T12:47:56.298Z,31.80
2022-08-03T12:50:34.010Z,33.09
2022-08-03T12:53:11.253Z,33.32
2022-08-03T12:56:04.495Z,36.84
2022-08-03T12:58:38.806Z,40.63
2022-08-03T13:01:13.904Z,42.01
2022-08-03T13:03:59.285Z,39.01
2022-08-03T13:06:34.532Z,36.61
2022-08-03T13:09:08.338Z,36.68
2022-08-03T13:11:57.631Z,39.01
2022-08-03T13:14:34.179Z,36.45
2022-08-03T13:17:07.543Z,34.77
2022-08-03T13:19:40.895Z,32.59
2022-08-03T13:22:22.346Z,33.93
2022-08-03T13:24:57.607Z,34.68
2022-08-03T13:28:03.508Z,34.21
2022-08-03T13:30:30.292Z,33.42
2022-08-03T13:33:03.594Z,36.91
2022-08-03T13:35:37.995Z,36.92
2022-08-03T13:38:15.320Z,37.90
2022-08-03T13:40:53.272Z,36.49
2022-08-03T13:43:26.313Z,36.09
2022-08-03T13:45:58.942Z,35.44
2022-08-03T13:48:34.733Z,33.64
2022-08-03T13:51:22.697Z,35.08
2022-08-03T13:54:07.283Z,39.11
2022-08-03T13:56:42.471Z,39.18
2022-08-03T13:59:17.502Z,40.95
2022-08-03T14:01:55.652Z,41.21
2022-08-03T14:04:28.870Z,42.46
2022-08-03T14:07:03.645Z,41.85
2022-08-03T14:09:38.838Z,40.19
2022-08-03T14:12:11.478Z,41.89
2022-08-03T14:14:44.102Z,41.35
2022-08-03T14:17:16.872Z,40.88
2022-08-03T14:19:53.380Z,41.34
2022-08-03T14:22:26.619Z,38.56
2022-08-03T14:24:59.294Z,35.38
2022-08-03T14:27:32.876Z,38.03
2022-08-03T14:30:06.286Z,38.30
2022-08-03T14:32:39.726Z,37.12
2022-08-03T14:35:12.591Z,35.40
2022-08-03T14:37:45.179Z,33.78
2022-08-03T14:40:21.509Z,31.42
2022-08-03T14:42:54.066Z,34.76
2022-08-03T14:45:26.646Z,37.53
2022-08-03T14:50:32.160Z,35.84
2022-08-03T14:50:55.271Z,38.19
2022-08-03T14:53:29.017Z,38.40
2022-08-03T14:56:06.518Z,37.37
2022-08-03T14:58:42.711Z,35.93
2022-08-03T15:02:04.849Z,36.45
2022-08-03T15:04:11.110Z,35.28
2022-08-03T15:06:43.873Z,34.19
2022-08-03T15:09:23.824Z,32.32
2022-08-03T15:11:59.280Z,31.97
2022-08-03T15:14:34.829Z,32.65
2022-08-03T15:17:09.339Z,31.29
2022-08-03T15:20:02.751Z,31.76
2022-08-03T15:22:36.079Z,33.98
2022-08-03T15:26:27.917Z,35.05
2022-08-03T15:28:02.780Z,37.44
2022-08-03T15:30:39.410Z,38.19
2022-08-03T15:33:12.002Z,37.62
2022-08-03T15:35:46.354Z,39.15
2022-08-03T15:38:19.999Z,42.49
2022-08-03T15:40:54.477Z,40.45
2022-08-03T15:43:27.308Z,38.63
2022-08-03T15:46:28.284Z,41.90
2022-08-03T15:48:52.643Z,40.52
2022-08-03T15:51:25.392Z,41.52
2022-08-03T15:53:58.056Z,37.48
2022-08-03T15:56:31.103Z,36.20
2022-08-03T15:59:13.223Z,36.11
2022-08-03T16:01:51.190Z,37.80
2022-08-03T16:04:24.009Z,39.84
2022-08-03T16:06:56.655Z,41.36
2022-08-03T16:09:43.180Z,43.77
2022-08-03T16:12:16.903Z,41.94
2022-08-03T16:14:53.592Z,44.67
2022-08-03T16:17:26.490Z,39.22
2022-08-03T16:19:59.067Z,42.35
2022-08-03T16:22:32.485Z,42.88
2022-08-03T16:25:16.471Z,35.82
2022-08-03T16:28:00.451Z,33.41
2022-08-03T16:30:44.281Z,33.25
2022-08-03T16:33:20.014Z,31.50
2022-08-03T16:35:52.690Z,30.86
2022-08-03T16:38:25.560Z,31.00
2022-08-03T16:40:58.508Z,31.79
2022-08-03T16:43:32.515Z,30.40
2022-08-03T16:46:05.225Z,30.59
2022-08-03T16:48:38.486Z,32.00
2022-08-03T16:51:11.371Z,32.59
2022-08-03T16:54:05.199Z,31.86
2022-08-03T16:56:37.162Z,33.33
2022-08-03T16:59:09.930Z,32.65
2022-08-03T17:01:47.467Z,33.29
2022-08-03T17:04:20.260Z,35.99
2022-08-03T17:06:53.732Z,35.69
2022-08-03T17:09:29.867Z,33.64
2022-08-03T17:12:19.956Z,35.52
2022-08-03T17:14:55.283Z,35.01
2022-08-03T17:17:47.735Z,36.57
2022-08-03T17:20:30.123Z,36.93
2022-08-03T17:23:34.276Z,39.54
2022-08-03T17:26:21.112Z,41.44
2022-08-03T17:28:57.904Z,41.60
2022-08-03T17:32:09.776Z,44.86
2022-08-03T17:34:59.148Z,46.07
2022-08-03T17:37:57.405Z,47.51
2022-08-03T17:40:25.586Z,46.92
2022-08-03T17:43:00.419Z,44.95
2022-08-03T17:45:52.018Z,46.77
2022-08-03T17:48:26.057Z,48.36
2022-08-03T17:51:07.376Z,48.31
2022-08-03T17:54:29.831Z,48.23
2022-08-03T17:57:27.286Z,49.26
2022-08-03T18:00:27.737Z,49.56
2022-08-03T18:03:31.691Z,50.84
2022-08-03T18:06:33.720Z,50.99
2022-08-03T18:10:05.926Z,52.99
2022-08-03T18:12:10.494Z,55.02
2022-08-03T18:14:57.144Z,55.80
2022-08-03T18:17:37.999Z,55.75
2022-08-03T18:20:41.273Z,55.29
2022-08-03T18:23:25.538Z,53.52
2022-08-03T18:26:11.923Z,57.84
2022-08-03T18:28:48.398Z,60.21
2022-08-03T18:32:00.206Z,62.51
2022-08-03T18:34:33.241Z,59.20
2022-08-03T18:37:25.255Z,62.49
2022-08-03T18:40:11.502Z,63.77
2022-08-03T18:42:51.047Z,64.35
2022-08-03T18:45:55.959Z,64.03
2022-08-03T18:48:52.824Z,64.85
2022-08-03T18:51:28.764Z,68.10
2022-08-03T18:54:45.977Z,64.64
2022-08-03T18:57:54.945Z,65.18
2022-08-03T19:00:54.429Z,70.04
2022-08-03T19:03:43.402Z,72.87
2022-08-03T19:06:23.623Z,71.99
2022-08-03T19:09:09.446Z,73.32
2022-08-03T19:12:26.180Z,74.21
2022-08-03T19:14:53.501Z,73.81
2022-08-03T19:17:29.366Z,74.84
2022-08-03T19:20:08.960Z,75.21
2022-08-03T19:22:47.942Z,78.44
2022-08-03T19:25:35.212Z,82.41
2022-08-03T19:28:09.383Z,76.96
2022-08-03T19:30:46.525Z,76.99
2022-08-03T19:33:56.090Z,76.48
2022-08-03T19:36:31.280Z,78.66
2022-08-03T19:39:09.144Z,81.29
2022-08-03T19:41:51.439Z,83.28
2022-08-03T19:44:30.549Z,84.36
2022-08-03T19:47:21.603Z,87.22
2022-08-03T19:50:05.642Z,86.92
2022-08-03T19:52:42.344Z,85.72
2022-08-03T19:55:17.822Z,83.58
2022-08-03T19:57:57.114Z,84.03
2022-08-03T20:00:34.004Z,82.49
2022-08-03T20:03:22.000Z,84.43
2022-08-03T20:05:58.819Z,87.27
2022-08-03T20:08:32.573Z,87.25
2022-08-03T20:11:05.602Z,89.33
2022-08-03T20:13:40.167Z,86.75
2022-08-03T20:16:16.212Z,86.34
2022-08-03T20:18:49.144Z,86.25
2022-08-03T20:21:27.100Z,85.37
2022-08-03T20:24:23.876Z,87.89
2022-08-03T20:27:01.388Z,87.81
2022-08-03T20:30:06.115Z,90.50
2022-08-03T20:32:35.395Z,89.34
2022-08-03T20:35:11.793Z,88.03
2022-08-03T20:37:44.526Z,88.24
2022-08-03T20:40:17.815Z,87.35
2022-08-03T20:42:51.932Z,91.20
2022-08-03T20:46:00.142Z,92.34
2022-08-03T20:48:25.460Z,93.02
2022-08-03T20:51:19.560Z,92.62
2022-08-03T20:53:59.840Z,92.85
2022-08-03T20:56:35.762Z,94.66
2022-08-03T20:59:15.206Z,97.36
2022-08-03T21:01:48.396Z,98.13
2022-08-03T21:04:22.554Z,100.00
2022-08-03T21:07:16.682Z,100.00
2022-08-03T21:09:57.125Z,100.00
2022-08-03T21:12:44.601Z,100.00
2022-08-03T21:16:06.633Z,100.00
2022-08-03T21:18:17.659Z,100.00
2022-08-03T21:20:52.898Z,100.00
2022-08-03T21:23:47.552Z,100.00
2022-08-03T21:26:25.403Z,100.00
2022-08-03T21:29:03.216Z,100.00
2022-08-03T21:31:39.879Z,100.00
2022-08-03T21:34:12.548Z,100.00
2022-08-03T21:36:45.193Z,100.00
2022-08-03T21:39:17.916Z,100.00
2022-08-03T21:41:50.487Z,100.00
2022-08-03T21:44:25.124Z,100.00
2022-08-03T21:47:09.843Z,100.00
2022-08-03T21:50:05.893Z,100.00
2022-08-03T21:52:44.046Z,100.00
2022-08-03T21:55:20.917Z,100.00
2022-08-03T21:58:02.801Z,100.00
2022-08-03T22:00:35.713Z,100.00
2022-08-03T22:03:13.841Z,100.00
2022-08-03T22:05:51.563Z,100.00
2022-08-03T22:08:35.230Z,100.00
2022-08-03T22:11:09.741Z,100.00
2022-08-03T22:13:43.821Z,100.00
2022-08-03T22:16:17.401Z,100.00
2022-08-03T22:18:50.164Z,100.00
2022-08-03T22:21:35.868Z,100.00
2022-08-03T22:24:09.549Z,100.00
2022-08-03T22:27:04.344Z,100.00
2022-08-03T22:29:41.957Z,100.00
2022-08-03T22:32:14.613Z,100.00
2022-08-03T22:34:49.281Z,100.00
2022-08-03T22:37:31.018Z,100.00
2022-08-03T22:40:14.315Z,100.00
2022-08-03T22:42:50.613Z,100.00
2022-08-03T22:46:07.543Z,100.00
2022-08-03T22:48:27.784Z,100.00
2022-08-03T22:51:01.948Z,100.00
2022-08-03T22:53:35.849Z,100.00
2022-08-03T22:56:09.014Z,100.00
2022-08-03T22:58:42.159Z,100.00
2022-08-03T23:01:23.078Z,100.00
2022-08-03T23:04:02.928Z,100.00
2022-08-03T23:06:42.552Z,100.00
2022-08-03T23:09:18.454Z,100.00
2022-08-03T23:11:56.692Z,100.00
2022-08-03T23:14:38.515Z,100.00
2022-08-03T23:17:14.333Z,100.00
2022-08-03T23:19:47.417Z,100.00
2022-08-03T23:22:30.447Z,100.00
2022-08-03T23:25:05.009Z,100.00
2022-08-03T23:27:43.553Z,100.00
2022-08-03T23:30:16.796Z,100.00
2022-08-03T23:32:54.572Z,100.00
2022-08-03T23:36:28.725Z,100.00
2022-08-03T23:38:39.988Z,100.00
2022-08-03T23:41:14.130Z,100.00
2022-08-03T23:43:52.127Z,100.00
2022-08-03T23:46:30.424Z,100.00
2022-08-03T23:49:11.323Z,100.00
2022-08-03T23:52:10.317Z,100.00
2022-08-03T23:54:51.974Z,100.00
2022-08-03T23:58:05.141Z,100.00
